Time;durP1;ratioP1;P1;durP2;ratioP2;P2;SDS_P1;SDS_P2;PMS_P1;PMS_P2;Temp;Humidity;BMP_temperature;BMP_pressure;BME280_temperature;BME280_humidity;BME280_pressure;Samples;Min_cycle;Max_cycle;Signal;HPM_P1;HPM_P2
2021/12/29 00:00:13;;;;;;;2.80;1.52;;;15.30;62.90;;;;;;5033225;28;20051;-69
2021/12/29 00:02:40;;;;;;;3.35;1.48;;;15.20;56.60;;;;;;5044758;28;20064;-69
2021/12/29 00:05:07;;;;;;;1.90;1.30;;;15.40;63.00;;;;;;5051578;28;20079;-69
2021/12/29 00:07:35;;;;;;;2.65;1.50;;;15.30;62.80;;;;;;5051839;28;20131;-69
2021/12/29 00:10:03;;;;;;;2.00;1.33;;;15.20;60.90;;;;;;5053082;28;20128;-69
2021/12/29 00:12:29;;;;;;;3.30;1.40;;;15.20;62.70;;;;;;5051764;28;20053;-69
2021/12/29 00:14:56;;;;;;;2.80;1.48;;;15.10;56.50;;;;;;5051649;28;20107;-69
2021/12/29 00:17:23;;;;;;;1.92;1.25;;;15.20;63.00;;;;;;5051534;28;20486;-69
2021/12/29 00:19:50;;;;;;;2.95;1.52;;;;;;;;;;5049996;28;20053;-69
2021/12/29 00:22:17;;;;;;;1.92;1.42;;;14.30;62.30;;;;;;5051550;28;20132;-69
2021/12/29 00:24:46;;;;;;;2.05;1.30;;;15.00;53.80;;;;;;5051514;28;20136;-69
2021/12/29 00:27:13;;;;;;;4.63;1.30;;;15.00;59.20;;;;;;5052254;28;20055;-69
2021/12/29 00:29:39;;;;;;;2.33;1.40;;;14.50;62.80;;;;;;5051608;28;20049;-69
2021/12/29 00:32:07;;;;;;;2.67;1.50;;;15.00;53.90;;;;;;5051815;28;20132;-69
2021/12/29 00:34:33;;;;;;;4.75;1.35;;;14.20;62.50;;;;;;5051651;28;20057;-69
2021/12/29 00:37:00;;;;;;;2.72;1.38;;;14.30;62.80;;;;;;5050165;28;20045;-69
2021/12/29 00:39:27;;;;;;;2.20;1.58;;;14.90;58.90;;;;;;5052214;28;20135;-69
2021/12/29 00:41:55;;;;;;;2.03;1.55;;;14.50;62.70;;;;;;5051344;28;20406;-69
2021/12/29 00:44:22;;;;;;;2.22;1.27;;;15.00;63.00;;;;;;5051406;28;20143;-69
2021/12/29 00:46:53;;;;;;;2.38;1.42;;;;;;;;;;5050872;28;20072;-69
2021/12/29 00:49:20;;;;;;;2.28;1.40;;;15.00;63.20;;;;;;5052361;28;20045;-69
2021/12/29 00:51:46;;;;;;;1.98;1.25;;;14.70;63.10;;;;;;5051187;28;20068;-69
2021/12/29 00:54:13;;;;;;;2.22;1.30;;;14.90;54.80;;;;;;5050862;28;20132;-69
2021/12/29 00:56:40;;;;;;;1.60;1.20;;;14.90;63.20;;;;;;5051986;28;20466;-69
2021/12/29 00:59:08;;;;;;;2.45;1.45;;;14.60;63.10;;;;;;5051063;28;20049;-69
2021/12/29 01:01:34;;;;;;;2.00;1.50;;;14.80;63.00;;;;;;5051152;28;20057;-69
2021/12/29 01:04:02;;;;;;;1.45;1.20;;;;;;;;;;5050978;28;20060;-69
2021/12/29 01:06:29;;;;;;;1.75;1.30;;;14.30;62.80;;;;;;5050849;28;20148;-69
2021/12/29 01:08:56;;;;;;;1.88;1.30;;;14.90;61.40;;;;;;5052036;28;20132;-69
2021/12/29 01:11:23;;;;;;;1.83;1.30;;;14.40;62.90;;;;;;5049330;28;20140;-69
2021/12/29 01:13:50;;;;;;;2.33;1.40;;;14.70;58.10;;;;;;5051929;28;20049;-69
2021/12/29 01:18:59;;;;;;;2.22;1.50;;;14.70;63.30;;;;;;5050058;28;20414;-69
2021/12/29 01:21:26;;;;;;;1.75;1.40;;;;;;;;;;5052002;28;20071;-69
2021/12/29 01:23:53;;;;;;;2.00;1.30;;;14.10;62.80;;;;;;5050458;28;20053;-69
2021/12/29 01:26:20;;;;;;;3.38;1.42;;;;;;;;;;5050196;28;20056;-69
2021/12/29 01:28:47;;;;;;;2.53;1.20;;;14.10;62.90;;;;;;5050785;28;20053;-69
2021/12/29 01:31:14;;;;;;;2.22;1.30;;;14.20;63.20;;;;;;5050752;28;20144;-69
2021/12/29 01:33:42;;;;;;;2.28;1.45;;;14.60;63.30;;;;;;5051590;28;20128;-69
2021/12/29 01:36:08;;;;;;;2.15;1.42;;;14.60;62.70;;;;;;5051567;28;20131;-69
2021/12/29 01:38:35;;;;;;;2.20;1.50;;;14.30;63.20;;;;;;5052044;28;20132;-69
2021/12/29 01:41:02;;;;;;;1.80;1.38;;;14.60;63.50;;;;;;5050352;28;20631;-69
2021/12/29 01:43:28;;;;;;;2.35;1.30;;;14.20;59.40;;;;;;5050326;28;20124;-69
2021/12/29 01:45:55;;;;;;;1.88;1.38;;;14.60;63.30;;;;;;5051503;28;20135;-69
2021/12/29 01:48:22;;;;;;;2.08;1.45;;;14.20;63.30;;;;;;5050667;28;20131;-69
2021/12/29 01:50:52;;;;;;;2.53;1.40;;;14.10;57.80;;;;;;5051657;28;20152;-69
2021/12/29 01:53:23;;;;;;;2.13;1.45;;;;;;;;;;5051266;28;20056;-69
2021/12/29 01:55:50;;;;;;;1.75;1.40;;;14.50;63.60;;;;;;5055518;28;20052;-69
2021/12/29 01:58:17;;;;;;;2.60;1.38;;;;;;;;;;5054565;28;20147;-69
2021/12/29 02:00:44;;;;;;;1.60;1.30;;;;;;;;;;5052621;28;20053;-69
2021/12/29 02:03:11;;;;;;;1.73;1.23;;;;;;;;;;5054155;28;20071;-69
2021/12/29 02:05:38;;;;;;;1.83;1.42;;;14.20;63.20;;;;;;5055238;28;20049;-69
2021/12/29 02:08:06;;;;;;;1.50;1.40;;;14.40;54.20;;;;;;5054460;28;20147;-69
2021/12/29 02:10:40;;;;;;;1.73;1.50;;;;;;;;;;5054301;28;20132;-69
2021/12/29 02:13:07;;;;;;;2.13;1.55;;;14.50;63.70;;;;;;5054459;28;20068;-69
2021/12/29 02:15:34;;;;;;;2.05;1.50;;;14.30;62.90;;;;;;5054038;28;20409;-69
2021/12/29 02:18:00;;;;;;;2.20;1.52;;;14.30;63.50;;;;;;5053281;28;20052;-69
2021/12/29 02:20:28;;;;;;;1.85;1.45;;;13.90;55.10;;;;;;5053901;28;20149;-69
2021/12/29 02:23:11;;;;;;;1.73;1.40;;;;;;;;;;5053830;28;20132;-69
2021/12/29 02:25:48;;;;;;;2.70;1.60;;;14.20;63.70;;;;;;5054750;28;20067;-69
2021/12/29 02:28:15;;;;;;;1.70;1.48;;;;;;;;;;5054053;28;20068;-69
2021/12/29 02:30:42;;;;;;;1.50;1.30;;;14.40;63.80;;;;;;5054059;28;20767;-69
2021/12/29 02:33:13;;;;;;;1.70;1.30;;;13.90;63.60;;;;;;5054885;28;20136;-69
2021/12/29 02:35:42;;;;;;;1.95;1.40;;;14.40;57.30;;;;;;5052953;28;20111;-69
2021/12/29 02:38:12;;;;;;;1.85;1.38;;;14.20;63.70;;;;;;5054844;28;20078;-69
2021/12/29 02:40:38;;;;;;;1.75;1.33;;;14.10;63.40;;;;;;5053295;28;20137;-69
2021/12/29 02:43:06;;;;;;;1.88;1.50;;;14.30;63.80;;;;;;5053470;28;20063;-69
2021/12/29 02:45:34;;;;;;;2.38;1.30;;;14.40;63.80;;;;;;5054385;28;20079;-69
2021/12/29 02:48:01;;;;;;;1.95;1.60;;;13.80;63.20;;;;;;5051916;28;20057;-69
2021/12/29 02:50:28;;;;;;;2.03;1.40;;;;;;;;;;5054427;28;20509;-69
2021/12/29 02:52:59;;;;;;;1.70;1.42;;;14.20;54.30;;;;;;5054656;28;20059;-69
2021/12/29 02:55:26;;;;;;;2.17;1.30;;;;;;;;;;5053292;28;20087;-69
2021/12/29 02:57:53;;;;;;;2.00;1.50;;;13.70;63.30;;;;;;5054286;28;20045;-69
2021/12/29 03:00:20;;;;;;;2.17;1.50;;;13.90;63.40;;;;;;5054328;28;20055;-69
2021/12/29 03:02:47;;;;;;;1.75;1.23;;;14.20;63.60;;;;;;5040105;28;20133;-69
2021/12/29 03:05:14;;;;;;;1.70;1.30;;;14.20;63.90;;;;;;5033053;28;20057;-69
2021/12/29 03:07:41;;;;;;;1.95;1.48;;;14.30;58.90;;;;;;5033128;28;20552;-69
2021/12/29 03:10:09;;;;;;;1.40;1.30;;;14.00;63.50;;;;;;5034242;28;20104;-68
2021/12/29 03:12:36;;;;;;;1.63;1.30;;;14.20;63.90;;;;;;5033466;28;20056;-68
2021/12/29 03:15:03;;;;;;;1.83;1.50;;;;;;;;;;5033067;28;20136;-68
2021/12/29 03:17:30;;;;;;;1.80;1.20;;;14.30;64.00;;;;;;5033972;28;20136;-69
2021/12/29 03:19:57;;;;;;;1.75;1.25;;;14.20;59.60;;;;;;5033834;28;20045;-69
2021/12/29 03:22:24;;;;;;;1.83;1.30;;;14.00;63.50;;;;;;5033041;28;20053;-69
2021/12/29 03:24:50;;;;;;;2.03;1.40;;;14.20;63.60;;;;;;5034588;28;20124;-69
2021/12/29 03:27:19;;;;;;;1.67;1.38;;;13.80;62.40;;;;;;5032826;28;20144;-68
2021/12/29 03:29:45;;;;;;;2.25;1.50;;;14.20;63.90;;;;;;5032887;28;20375;-68
2021/12/29 03:32:21;;;;;;;3.33;1.60;;;14.10;63.70;;;;;;5032830;28;20137;-69
2021/12/29 03:34:47;;;;;;;;;;;11.80;53.50;;;;;;5033333;28;20061;-69
2021/12/29 03:37:14;;;;;;;1.80;1.50;;;14.10;63.90;;;;;;5034731;28;20015;-69
2021/12/29 03:39:41;;;;;;;1.60;1.27;;;;;;;;;;5033586;28;20605;-69
2021/12/29 03:42:08;;;;;;;1.65;1.30;;;14.20;63.70;;;;;;5032799;28;20164;-69
2021/12/29 03:44:36;;;;;;;1.90;1.50;;;14.20;64.00;;;;;;5032778;28;20137;-69
2021/12/29 03:47:03;;;;;;;2.00;1.58;;;14.20;64.10;;;;;;5032115;28;20132;-69
2021/12/29 03:49:30;;;;;;;1.88;1.42;;;14.20;62.40;;;;;;5033481;28;20136;-69
2021/12/29 03:51:58;;;;;;;2.00;1.35;;;14.10;63.80;;;;;;5032326;28;20084;-69
2021/12/29 03:54:25;;;;;;;1.90;1.38;;;14.20;63.80;;;;;;5053188;28;20041;-69
2021/12/29 03:56:52;;;;;;;2.30;1.50;;;;;;;;;;5052174;28;20052;-69
2021/12/29 03:59:19;;;;;;;1.92;1.70;;;14.10;63.80;;;;;;5053394;28;20454;-69
2021/12/29 04:01:50;;;;;;;1.67;1.25;;;13.90;63.90;;;;;;5051987;28;20076;-69
2021/12/29 04:04:16;;;;;;;2.00;1.50;;;14.10;63.90;;;;;;5053211;28;20139;-69
2021/12/29 04:06:43;;;;;;;2.00;1.60;;;14.10;64.00;;;;;;5051957;28;20565;-69
2021/12/29 04:09:10;;;;;;;1.80;1.40;;;;;;;;;;5050708;28;20127;-69
2021/12/29 04:11:37;;;;;;;1.85;1.42;;;14.10;63.70;;;;;;5032052;28;20056;-69
2021/12/29 04:14:04;;;;;;;1.98;1.60;;;;;;;;;;5033323;28;20124;-69
2021/12/29 04:16:35;;;;;;;1.92;1.33;;;14.10;59.40;;;;;;5032431;28;20060;-69
2021/12/29 04:19:17;;;;;;;2.05;1.50;;;13.60;54.00;;;;;;5031918;28;20064;-69
2021/12/29 04:21:45;;;;;;;1.80;1.50;;;14.10;54.30;;;;;;5031697;28;20053;-69
2021/12/29 04:24:12;;;;;;;1.92;1.50;;;14.00;63.60;;;;;;5031909;28;20103;-69
2021/12/29 04:26:39;;;;;;;2.45;1.65;;;14.30;63.90;;;;;;5032526;28;20578;-69
2021/12/29 04:29:06;;;;;;;2.50;1.50;;;14.90;64.00;;;;;;5031534;28;20128;-69
2021/12/29 04:31:33;;;;;;;1.92;1.40;;;14.30;62.20;;;;;;5031753;28;20147;-69
2021/12/29 04:34:00;;;;;;;1.67;1.40;;;13.60;63.30;;;;;;5031744;28;20144;-69
2021/12/29 04:36:28;;;;;;;1.73;1.30;;;14.20;63.60;;;;;;5031684;28;20132;-69
2021/12/29 04:38:57;;;;;;;2.83;1.75;;;;;;;;;;5032834;28;20076;-69
2021/12/29 04:41:23;;;;;;;1.73;1.33;;;14.30;63.80;;;;;;5045524;28;20045;-69
2021/12/29 04:43:50;;;;;;;1.90;1.40;;;14.40;63.70;;;;;;5051191;28;20051;-69
2021/12/29 04:46:18;;;;;;;1.85;1.40;;;;;;;;;;5052629;28;20132;-69
2021/12/29 04:48:50;;;;;;;1.88;1.40;;;14.30;63.90;;;;;;5052323;28;20124;-69
2021/12/29 04:51:24;;;;;;;2.03;1.42;;;13.90;63.60;;;;;;5051289;28;20067;-69
2021/12/29 04:53:52;;;;;;;2.33;1.50;;;14.20;63.70;;;;;;5051430;28;20132;-69
2021/12/29 04:56:20;;;;;;;1.85;1.30;;;14.10;63.30;;;;;;5032883;28;20140;-69
2021/12/29 04:58:46;;;;;;;2.88;1.40;;;14.40;63.50;;;;;;5031234;28;20049;-69
2021/12/29 05:01:13;;;;;;;1.65;1.23;;;;;;;;;;5030966;28;20049;-69
2021/12/29 05:03:43;;;;;;;1.98;1.48;;;14.30;63.60;;;;;;5032276;28;20486;-69
2021/12/29 05:09:01;;;;;;;2.08;1.50;;;14.30;59.10;;;;;;4960188;28;20189;-69
2021/12/29 05:11:28;;;;;;;2.40;1.40;;;14.20;58.30;;;;;;5032008;28;20865;-69
2021/12/29 05:13:55;;;;;;;1.50;1.23;;;14.40;63.30;;;;;;5031093;28;20132;-69
2021/12/29 05:16:22;;;;;;;1.50;1.20;;;14.30;57.40;;;;;;5030923;28;20060;-69
2021/12/29 05:18:49;;;;;;;2.42;1.33;;;14.00;57.20;;;;;;5031213;28;20441;-69
2021/12/29 05:21:16;;;;;;;2.05;1.40;;;;;;;;;;5032069;28;20049;-68
2021/12/29 05:23:42;;;;;;;2.00;1.33;;;14.40;63.20;;;;;;5030866;28;20053;-68
2021/12/29 05:26:11;;;;;;;2.15;1.45;;;13.90;63.30;;;;;;5030685;28;20065;-68
2021/12/29 05:28:37;;;;;;;2.33;1.50;;;14.40;63.50;;;;;;5034575;28;20045;-68
2021/12/29 05:31:04;;;;;;;2.17;1.40;;;;;;;;;;5051956;28;20132;-68
2021/12/29 05:33:31;;;;;;;1.98;1.30;;;14.50;63.50;;;;;;5051701;28;20055;-68
2021/12/29 05:35:58;;;;;;;1.77;1.30;;;14.50;63.20;;;;;;5050319;28;20140;-68
2021/12/29 05:38:24;;;;;;;3.00;1.67;;;14.60;55.90;;;;;;5050790;28;20144;-68
2021/12/29 05:40:52;;;;;;;1.70;1.27;;;14.50;63.10;;;;;;5050510;28;20059;-68
2021/12/29 05:43:20;;;;;;;2.00;1.50;;;14.40;57.80;;;;;;5050634;28;20111;-68
2021/12/29 05:45:47;;;;;;;2.05;1.50;;;14.40;60.00;;;;;;5042654;28;20056;-68
2021/12/29 05:48:13;;;;;;;1.83;1.40;;;14.60;63.40;;;;;;5030828;28;20141;-68
2021/12/29 05:50:40;;;;;;;2.15;1.45;;;14.50;63.00;;;;;;5030685;28;20501;-68
2021/12/29 05:53:07;;;;;;;2.65;1.40;;;14.50;59.40;;;;;;5030762;28;20064;-68
2021/12/29 05:55:34;;;;;;;1.67;1.20;;;14.50;63.30;;;;;;5031520;28;20061;-68
2021/12/29 05:58:00;;;;;;;2.38;1.50;;;14.60;63.10;;;;;;5032616;28;20136;-68
2021/12/29 06:00:28;;;;;;;1.80;1.30;;;14.10;58.10;;;;;;5051419;28;20812;-68
2021/12/29 06:02:55;;;;;;;2.47;1.75;;;14.50;58.50;;;;;;5048904;28;20464;-69
2021/12/29 06:05:23;;;;;;;2.35;1.75;;;;;;;;;;5051238;28;20412;-68
2021/12/29 06:07:49;;;;;;;2.88;1.55;;;14.00;62.50;;;;;;5051527;28;20075;-68
2021/12/29 06:10:16;;;;;;;3.85;1.70;;;14.70;63.10;;;;;;5051439;28;20528;-68
2021/12/29 06:12:43;;;;;;;1.90;1.35;;;;;;;;;;5050545;28;20136;-69
2021/12/29 06:15:10;;;;;;;1.92;1.33;;;14.60;62.90;;;;;;5050322;28;20059;-68
2021/12/29 06:17:38;;;;;;;2.40;1.70;;;14.60;62.90;;;;;;5050222;28;20698;-69
2021/12/29 06:20:06;;;;;;;1.98;1.50;;;13.40;62.30;;;;;;5048695;28;20589;-69
2021/12/29 06:22:33;;;;;;;2.22;1.63;;;14.00;62.60;;;;;;5050027;28;20053;-68
2021/12/29 06:24:59;;;;;;;2.22;1.63;;;14.60;54.30;;;;;;5050099;28;20057;-68
2021/12/29 06:27:27;;;;;;;2.00;1.52;;;;;;;;;;5055198;28;20078;-68
2021/12/29 06:29:54;;;;;;;2.42;1.60;;;;;;;;;;5067824;28;20140;-68
2021/12/29 06:32:20;;;;;;;2.75;1.60;;;15.20;63.20;;;;;;5049038;28;20136;-68
2021/12/29 06:34:49;;;;;;;1.83;1.42;;;14.20;63.00;;;;;;5063931;28;20153;-67
2021/12/29 06:37:15;;;;;;;1.88;1.45;;;15.30;63.30;;;;;;5048443;28;20088;-67
2021/12/29 06:39:43;;;;;;;1.77;1.40;;;14.30;59.20;;;;;;5051062;28;20140;-68
2021/12/29 06:42:09;;;;;;;2.50;1.38;;;14.70;62.90;;;;;;5055152;28;20056;-68
2021/12/29 06:44:36;;;;;;;1.73;1.50;;;14.20;56.90;;;;;;5044334;28;20145;-68
2021/12/29 06:47:03;;;;;;;1.95;1.60;;;14.70;63.10;;;;;;5034872;28;20129;-67
2021/12/29 06:49:30;;;;;;;2.10;1.58;;;;;;;;;;5034512;28;20395;-68
2021/12/29 06:52:00;;;;;;;3.10;1.60;;;14.60;63.00;;;;;;5039103;28;20128;-67
2021/12/29 06:54:26;;;;;;;2.45;1.50;;;14.10;54.70;;;;;;5052125;28;20052;-68
2021/12/29 06:56:53;;;;;;;2.00;1.38;;;14.80;56.60;;;;;;5052137;28;20057;-71
2021/12/29 06:59:20;;;;;;;1.77;1.45;;;14.60;63.00;;;;;;5053875;28;20135;-68
2021/12/29 07:01:46;;;;;;;2.10;1.48;;;14.00;54.70;;;;;;5052883;28;20080;-69
2021/12/29 07:04:13;;;;;;;2.20;1.38;;;14.70;63.20;;;;;;5054516;28;20136;-67
2021/12/29 07:06:40;;;;;;;2.00;1.58;;;14.10;62.70;;;;;;5053210;28;20592;-68
2021/12/29 07:09:08;;;;;;;1.90;1.35;;;14.30;55.50;;;;;;5053372;28;20135;-69
2021/12/29 07:11:36;;;;;;;1.80;1.40;;;14.80;55.00;;;;;;5039799;28;20148;-68
2021/12/29 07:14:04;;;;;;;3.50;1.70;;;14.10;58.00;;;;;;5035622;28;21056;-68
2021/12/29 07:16:31;;;;;;;2.03;1.60;;;;;;;;;;5066305;28;20059;-68
2021/12/29 07:18:57;;;;;;;1.95;1.40;;;14.60;63.00;;;;;;5073233;28;20508;-69
2021/12/29 07:21:24;;;;;;;2.42;1.50;;;13.90;62.40;;;;;;5059449;28;20064;-68
2021/12/29 07:23:53;;;;;;;3.90;2.17;;;14.70;56.20;;;;;;5052909;28;20383;-68
2021/12/29 07:26:22;;;;;;;2.42;1.60;;;14.70;62.80;;;;;;5053317;28;20091;-69
2021/12/29 07:28:49;;;;;;;2.08;1.50;;;;;;;;;;5036078;28;20140;-68
2021/12/29 07:31:15;;;;;;;2.17;1.58;;;14.20;62.50;;;;;;5034320;28;20067;-69
2021/12/29 07:33:42;;;;;;;1.88;1.40;;;14.60;62.80;;;;;;5047358;28;20127;-68
2021/12/29 07:36:11;;;;;;;3.08;1.52;;;;;;;;;;5052350;28;20053;-69
2021/12/29 07:38:38;;;;;;;2.22;1.40;;;14.60;62.70;;;;;;5053858;28;20064;-69
2021/12/29 07:41:04;;;;;;;2.47;1.55;;;14.60;63.10;;;;;;5052144;28;20562;-71
2021/12/29 07:43:34;;;;;;;1.95;1.42;;;14.60;53.90;;;;;;5053298;28;20128;-71
2021/12/29 07:46:01;;;;;;;2.22;1.42;;;14.50;63.00;;;;;;5033222;28;20111;-72
2021/12/29 07:48:30;;;;;;;1.95;1.50;;;14.50;62.90;;;;;;5032371;28;20577;-72
2021/12/29 07:50:57;;;;;;;1.75;1.30;;;14.50;63.10;;;;;;5031813;28;20479;-72
2021/12/29 07:53:24;;;;;;;2.08;1.50;;;;;;;;;;5032648;28;20057;-71
2021/12/29 07:55:51;;;;;;;2.53;1.83;;;14.10;62.70;;;;;;5031941;28;20096;-72
2021/12/29 07:58:18;;;;;;;3.00;1.88;;;;;;;;;;5043068;28;20545;-71
2021/12/29 08:00:46;;;;;;;4.18;1.50;;;14.70;63.20;;;;;;5064432;28;20136;-71
2021/12/29 08:03:13;;;;;;;3.72;1.60;;;14.70;62.90;;;;;;5049851;28;20123;-72
2021/12/29 08:05:40;;;;;;;1.60;1.35;;;15.60;63.30;;;;;;5051599;28;20160;-71
2021/12/29 08:08:06;;;;;;;2.35;1.65;;;14.70;58.50;;;;;;5051875;28;20484;-71
2021/12/29 08:10:33;;;;;;;3.55;1.55;;;14.70;63.10;;;;;;5051634;28;20060;-71
2021/12/29 08:13:01;;;;;;;1.67;1.27;;;;;;;;;;5051840;28;20546;-71
2021/12/29 08:15:29;;;;;;;3.58;1.80;;;15.60;63.10;;;;;;5051424;28;20501;-71
2021/12/29 08:17:58;;;;;;;2.17;1.40;;;14.30;62.50;;;;;;5047703;28;20553;-71
2021/12/29 08:20:25;;;;;;;2.28;1.40;;;;;;;;;;5041746;28;20067;-71
2021/12/29 08:22:52;;;;;;;2.72;1.55;;;14.30;62.40;;;;;;5042760;28;20079;-71
2021/12/29 08:25:19;;;;;;;2.28;1.60;;;;;;;;;;5051345;28;20406;-72
2021/12/29 08:27:46;;;;;;;2.08;1.50;;;14.60;62.80;;;;;;5051408;28;20136;-72
2021/12/29 08:30:13;;;;;;;2.55;1.40;;;15.70;61.00;;;;;;5051361;28;20459;-71
2021/12/29 08:32:40;;;;;;;1.77;1.50;;;15.50;62.90;;;;;;5044055;28;20053;-71
2021/12/29 08:35:09;;;;;;;4.05;1.50;;;14.90;53.80;;;;;;5031633;28;20148;-71
2021/12/29 08:37:35;;;;;;;2.00;1.50;;;15.00;62.60;;;;;;5031213;28;20136;-71
2021/12/29 08:40:02;;;;;;;3.45;1.35;;;15.00;62.60;;;;;;5050574;28;20510;-70
2021/12/29 08:42:29;;;;;;;2.28;1.30;;;;;;;;;;5051323;28;20417;-71
2021/12/29 08:44:56;;;;;;;2.42;1.40;;;15.30;62.90;;;;;;5051262;28;20049;-72
2021/12/29 08:47:23;;;;;;;2.65;1.40;;;;;;;;;;5037073;28;20738;-72
2021/12/29 08:49:50;;;;;;;1.65;1.20;;;15.40;63.10;;;;;;5051247;28;20124;-72
2021/12/29 08:52:18;;;;;;;5.03;1.58;;;15.10;63.00;;;;;;5051408;28;20562;-71
2021/12/29 08:54:44;;;;;;;4.28;1.70;;;15.20;63.20;;;;;;5050321;28;20143;-71
2021/12/29 08:57:12;;;;;;;3.10;1.60;;;;;;;;;;5050457;28;20152;-71
2021/12/29 08:59:39;;;;;;;3.22;1.70;;;;;;;;;;5049635;28;20136;-69
2021/12/29 09:02:06;;;;;;;4.43;1.70;;;;;;;;;;5049867;28;20055;-70
2021/12/29 09:04:33;;;;;;;12.23;1.98;;;15.10;64.20;;;;;;5050210;28;20442;-70
2021/12/29 09:07:00;;;;;;;5.30;1.80;;;;;;;;;;5050658;28;20136;-70
2021/12/29 09:09:28;;;;;;;3.83;2.00;;;15.30;59.80;;;;;;5042998;28;20134;-70
2021/12/29 09:11:55;;;;;;;5.03;1.80;;;14.40;64.40;;;;;;5032356;28;20133;-70
2021/12/29 09:14:21;;;;;;;4.68;1.60;;;14.50;64.70;;;;;;5030911;28;20068;-70
2021/12/29 09:16:48;;;;;;;3.85;1.50;;;;;;;;;;5043589;28;20048;-70
2021/12/29 09:19:15;;;;;;;5.55;1.73;;;15.30;65.20;;;;;;5031125;28;20220;-70
2021/12/29 09:21:44;;;;;;;3.78;1.50;;;;;;;;;;5039660;28;20128;-70
2021/12/29 09:24:11;;;;;;;4.13;1.83;;;15.10;64.80;;;;;;5050844;28;20056;-70
2021/12/29 09:26:39;;;;;;;4.70;1.80;;;15.30;65.30;;;;;;5050471;28;20534;-70
2021/12/29 09:29:06;;;;;;;2.47;1.67;;;15.10;65.10;;;;;;5050400;28;20132;-70
2021/12/29 09:31:32;;;;;;;3.60;1.45;;;15.50;59.30;;;;;;5049953;28;20094;-70
2021/12/29 09:33:59;;;;;;;4.43;1.83;;;15.40;65.40;;;;;;5050143;28;20084;-70
2021/12/29 09:36:26;;;;;;;3.88;1.80;;;15.50;65.10;;;;;;5051570;28;20136;-70
2021/12/29 09:38:53;;;;;;;5.85;1.83;;;15.50;58.70;;;;;;5050630;28;20573;-70
2021/12/29 09:41:19;;;;;;;2.53;1.45;;;15.60;65.20;;;;;;5049122;28;20139;-71
2021/12/29 09:43:48;;;;;;;3.33;1.60;;;15.40;65.20;;;;;;5050220;28;20051;-71
2021/12/29 09:46:15;;;;;;;2.33;1.40;;;;;;;;;;5049557;28;20059;-70
2021/12/29 09:48:42;;;;;;;2.38;1.58;;;15.60;64.90;;;;;;5050101;28;20069;-71
2021/12/29 09:51:11;;;;;;;3.13;1.40;;;15.50;64.70;;;;;;5034046;28;20137;-71
2021/12/29 09:53:38;;;;;;;3.15;1.50;;;15.50;64.70;;;;;;5030662;28;20056;-71
2021/12/29 09:56:05;;;;;;;3.95;1.52;;;15.50;64.90;;;;;;5030035;28;20050;-71
2021/12/29 09:58:32;;;;;;;2.50;1.30;;;14.50;60.00;;;;;;5037877;28;20457;-71
2021/12/29 10:01:04;;;;;;;3.55;1.50;;;15.50;56.30;;;;;;5047594;28;20124;-70
2021/12/29 10:03:31;;;;;;;2.75;1.63;;;;;;;;;;5048857;28;20580;-74
2021/12/29 10:06:00;;;;;;;4.07;1.33;;;16.10;64.80;;;;;;5044437;28;20136;-72
2021/12/29 10:08:28;;;;;;;2.50;1.40;;;15.50;56.10;;;;;;5050570;28;20055;-70
2021/12/29 10:10:56;;;;;;;3.10;1.33;;;15.60;64.40;;;;;;5032847;28;20048;-72
2021/12/29 10:13:22;;;;;;;2.78;1.40;;;15.50;64.40;;;;;;5030615;28;20151;-72
2021/12/29 10:15:52;;;;;;;2.30;1.23;;;15.60;56.00;;;;;;5032953;28;20140;-72
2021/12/29 10:18:22;;;;;;;2.30;1.27;;;15.90;64.70;;;;;;5034522;28;20132;-73
2021/12/29 10:20:50;;;;;;;2.83;1.30;;;16.40;64.70;;;;;;5036195;28;20481;-73
2021/12/29 10:23:19;;;;;;;2.60;1.50;;;16.10;64.70;;;;;;5044890;28;20060;-73
2021/12/29 10:25:46;;;;;;;2.95;1.35;;;16.50;64.60;;;;;;5033531;28;20466;-73
2021/12/29 10:28:21;;;;;;;3.08;1.30;;;15.60;64.40;;;;;;5049631;28;20562;-73
2021/12/29 10:30:57;;;;;;;3.00;1.33;;;15.70;64.20;;;;;;5053692;28;20052;-73
2021/12/29 10:33:26;;;;;;;2.95;1.15;;;15.90;61.10;;;;;;5070569;28;20140;-73
2021/12/29 10:35:52;;;;;;;2.00;1.20;;;15.80;64.40;;;;;;5053285;28;20059;-73
2021/12/29 10:38:20;;;;;;;3.28;1.30;;;15.60;64.30;;;;;;5053392;28;20124;-70
2021/12/29 10:40:49;;;;;;;2.25;1.30;;;15.10;63.60;;;;;;5052907;28;20475;-70
2021/12/29 10:43:16;;;;;;;2.45;1.40;;;16.40;64.60;;;;;;5045332;28;20631;-70
2021/12/29 10:45:44;;;;;;;2.13;1.35;;;15.60;63.00;;;;;;5033633;28;20136;-71
2021/12/29 10:48:18;;;;;;;2.53;1.20;;;14.90;57.30;;;;;;5044919;28;20135;-72
2021/12/29 10:50:57;;;;;;;2.58;1.42;;;15.00;63.60;;;;;;5053332;28;20569;-70
2021/12/29 10:53:24;;;;;;;2.75;1.38;;;16.40;59.40;;;;;;5053150;28;20132;-70
2021/12/29 10:55:51;;;;;;;2.90;1.33;;;15.60;55.40;;;;;;5052651;28;20132;-70
2021/12/29 10:58:19;;;;;;;2.45;1.27;;;15.50;63.70;;;;;;5052900;28;20132;-68
2021/12/29 11:00:46;;;;;;;2.38;1.40;;;16.50;64.30;;;;;;5053285;28;20135;-71
2021/12/29 11:03:14;;;;;;;2.00;1.30;;;14.80;63.40;;;;;;5052673;28;20231;-71
2021/12/29 11:05:42;;;;;;;3.60;1.38;;;15.70;60.00;;;;;;5053054;28;20780;-71
2021/12/29 11:08:11;;;;;;;1.90;1.25;;;15.70;55.50;;;;;;5052551;28;20139;-73
2021/12/29 11:10:38;;;;;;;2.58;1.40;;;15.70;64.00;;;;;;5042507;28;20144;-71
2021/12/29 11:13:04;;;;;;;1.85;1.30;;;15.70;64.00;;;;;;5052172;28;20132;-68
2021/12/29 11:15:33;;;;;;;2.22;1.30;;;15.70;55.50;;;;;;5040841;28;20144;-69
2021/12/29 11:18:03;;;;;;;2.67;1.52;;;15.70;64.10;;;;;;5053018;28;20136;-69
2021/12/29 11:20:31;;;;;;;1.45;1.20;;;;;;;;;;5052203;28;20060;-70
2021/12/29 11:23:10;;;;;;;2.88;1.50;;;15.30;58.00;;;;;;5051131;28;20096;-72
2021/12/29 11:25:37;;;;;;;2.25;1.30;;;15.70;64.10;;;;;;5032806;28;20133;-69
2021/12/29 11:28:04;;;;;;;2.88;1.42;;;16.00;63.20;;;;;;5032525;28;20166;-70
2021/12/29 11:30:31;;;;;;;1.38;1.02;;;15.80;63.70;;;;;;5032772;28;20140;-69
2021/12/29 11:33:05;;;;;;;2.88;1.52;;;15.80;55.50;;;;;;5032809;28;20132;-72
2021/12/29 11:35:32;;;;;;;3.47;1.50;;;16.00;58.40;;;;;;5031113;28;20050;-71
2021/12/29 11:38:00;;;;;;;3.58;1.55;;;15.80;63.90;;;;;;5048612;28;20061;-71
2021/12/29 11:40:29;;;;;;;4.35;1.60;;;16.60;64.30;;;;;;5052188;28;20060;-71
2021/12/29 11:42:56;;;;;;;2.85;1.50;;;15.80;63.20;;;;;;5052154;28;20055;-72
2021/12/29 11:45:23;;;;;;;3.08;1.60;;;15.90;63.00;;;;;;5051849;28;20140;-76
2021/12/29 11:47:50;;;;;;;3.35;1.50;;;;;;;;;;5051644;28;20053;-71
2021/12/29 11:50:19;;;;;;;5.30;1.50;;;15.40;63.90;;;;;;5051571;28;20143;-72
2021/12/29 11:53:05;;;;;;;2.58;1.65;;;15.80;55.80;;;;;;5051667;28;20132;-72
2021/12/29 11:55:34;;;;;;;4.55;1.60;;;15.90;55.90;;;;;;5052169;28;20144;-71
2021/12/29 11:58:15;;;;;;;3.45;1.60;;;15.90;64.40;;;;;;5051585;28;20055;-73
2021/12/29 12:00:42;;;;;;;3.67;1.35;;;15.90;64.40;;;;;;5051616;28;20056;-73
2021/12/29 12:03:10;;;;;;;3.45;1.55;;;15.50;57.60;;;;;;5051996;28;20521;-75
2021/12/29 12:05:38;;;;;;;3.80;1.50;;;15.40;62.70;;;;;;5041679;28;20136;-75
2021/12/29 12:08:06;;;;;;;2.85;1.60;;;15.00;63.90;;;;;;5031732;28;20108;-75
2021/12/29 12:10:36;;;;;;;2.30;1.45;;;16.70;64.70;;;;;;5031006;28;20057;-75
2021/12/29 12:13:05;;;;;;;5.70;1.70;;;16.50;64.90;;;;;;5031565;28;20265;-75
2021/12/29 12:15:33;;;;;;;2.30;1.40;;;16.20;64.90;;;;;;5031616;28;20056;-75
2021/12/29 12:18:06;;;;;;;3.72;1.73;;;16.10;65.00;;;;;;5031650;28;20419;-72
2021/12/29 12:20:39;;;;;;;2.67;1.40;;;16.10;64.30;;;;;;5045213;28;20502;-74
2021/12/29 12:23:06;;;;;;;5.05;2.00;;;16.20;64.80;;;;;;5051237;28;20128;-72
2021/12/29 12:25:35;;;;;;;2.05;1.15;;;16.50;63.80;;;;;;5051518;28;20083;-71
2021/12/29 12:28:03;;;;;;;3.25;1.35;;;16.60;64.50;;;;;;5051726;28;20143;-73
2021/12/29 12:30:36;;;;;;;2.40;1.45;;;16.40;56.20;;;;;;5051759;28;20057;-73
2021/12/29 12:33:09;;;;;;;2.00;1.20;;;16.50;56.10;;;;;;5051354;28;20091;-76
2021/12/29 12:35:37;;;;;;;3.15;1.30;;;16.30;64.20;;;;;;5051305;28;20139;-73
2021/12/29 12:38:12;;;;;;;3.60;1.20;;;15.60;63.80;;;;;;5048516;28;20103;-73
2021/12/29 12:40:41;;;;;;;2.55;1.38;;;16.60;55.60;;;;;;5031425;28;20486;-72
2021/12/29 12:43:11;;;;;;;2.90;1.60;;;16.80;63.70;;;;;;5042385;28;20045;-68
2021/12/29 12:45:39;;;;;;;1.92;1.45;;;16.80;62.80;;;;;;5050723;28;20049;-69
2021/12/29 12:48:08;;;;;;;4.10;1.40;;;16.80;63.70;;;;;;5050329;28;20127;-69
2021/12/29 12:50:35;;;;;;;2.85;1.30;;;17.40;64.10;;;;;;5049332;28;20095;-69
2021/12/29 12:53:02;;;;;;;2.22;1.30;;;16.60;60.60;;;;;;5049296;28;20055;-69
2021/12/29 12:55:29;;;;;;;2.45;1.40;;;16.70;63.90;;;;;;5049895;28;20056;-68
2021/12/29 12:58:07;;;;;;;3.03;1.50;;;16.70;56.70;;;;;;5050687;28;20044;-69
2021/12/29 13:00:34;;;;;;;1.80;1.20;;;;;;;;;;5050563;28;20081;-71
2021/12/29 13:03:02;;;;;;;2.20;1.23;;;16.50;63.80;;;;;;5050514;28;20041;-69
2021/12/29 13:05:29;;;;;;;2.53;1.40;;;16.40;63.70;;;;;;5051653;28;20413;-69
2021/12/29 13:08:01;;;;;;;2.30;1.38;;;16.50;57.50;;;;;;5051632;28;20470;-71
2021/12/29 13:10:30;;;;;;;2.22;1.30;;;16.30;55.50;;;;;;5051615;28;20485;-71